sensor_id;sensor_type;location;lat;lon;timestamp;pressure;altitude;pressure_sealevel;temperature;humidity
76864;BME280;65834;52.364;9.754;2023-06-22T00:01:55;101226.69;;;22.71;60.93
76864;BME280;65834;52.364;9.754;2023-06-22T00:04:24;101219.25;;;22.72;60.84
76864;BME280;65834;52.364;9.754;2023-06-22T00:06:54;101229.44;;;22.71;61.01
76864;BME280;65834;52.364;9.754;2023-06-22T00:09:24;101225.63;;;22.72;60.92
76864;BME280;65834;52.364;9.754;2023-06-22T00:11:53;101236.75;;;22.99;60.19
76864;BME280;65834;52.364;9.754;2023-06-22T00:14:25;101236.53;;;23.00;59.60
76864;BME280;65834;52.364;9.754;2023-06-22T00:16:55;101238.94;;;22.97;58.95
76864;BME280;65834;52.364;9.754;2023-06-22T00:19:25;101238.56;;;22.88;58.51
76864;BME280;65834;52.364;9.754;2023-06-22T00:21:55;101240.47;;;22.88;58.28
76864;BME280;65834;52.364;9.754;2023-06-22T00:24:27;101239.38;;;23.27;57.42
76864;BME280;65834;52.364;9.754;2023-06-22T00:26:56;101247.16;;;23.52;56.37
76864;BME280;65834;52.364;9.754;2023-06-22T00:29:30;101262.44;;;23.38;56.49
76864;BME280;65834;52.364;9.754;2023-06-22T00:31:59;101263.94;;;23.45;55.92
76864;BME280;65834;52.364;9.754;2023-06-22T00:34:31;101254.09;;;22.78;57.53
76864;BME280;65834;52.364;9.754;2023-06-22T00:37:01;101259.94;;;22.98;56.99
76864;BME280;65834;52.364;9.754;2023-06-22T00:39:33;101252.00;;;23.23;56.37
76864;BME280;65834;52.364;9.754;2023-06-22T00:42:03;101254.34;;;23.31;55.49
76864;BME280;65834;52.364;9.754;2023-06-22T00:44:36;101252.78;;;23.18;55.94
76864;BME280;65834;52.364;9.754;2023-06-22T00:47:06;101255.13;;;23.48;55.06
76864;BME280;65834;52.364;9.754;2023-06-22T00:49:35;101248.72;;;23.43;54.77
76864;BME280;65834;52.364;9.754;2023-06-22T00:52:06;101237.66;;;23.43;54.91
76864;BME280;65834;52.364;9.754;2023-06-22T00:54:40;101231.81;;;23.39;54.97
76864;BME280;65834;52.364;9.754;2023-06-22T00:57:12;101222.03;;;23.32;55.26
76864;BME280;65834;52.364;9.754;2023-06-22T00:59:45;101219.41;;;23.42;54.68
76864;BME280;65834;52.364;9.754;2023-06-22T01:02:16;101223.78;;;23.38;54.76
76864;BME280;65834;52.364;9.754;2023-06-22T01:04:46;101222.84;;;23.32;54.93
76864;BME280;65834;52.364;9.754;2023-06-22T01:07:21;101215.94;;;23.30;54.99
76864;BME280;65834;52.364;9.754;2023-06-22T01:09:57;101215.03;;;23.24;55.06
76864;BME280;65834;52.364;9.754;2023-06-22T01:12:34;101213.59;;;23.00;55.94
76864;BME280;65834;52.364;9.754;2023-06-22T01:15:10;101206.69;;;23.19;55.26
76864;BME280;65834;52.364;9.754;2023-06-22T01:17:40;101204.63;;;23.09;55.59
76864;BME280;65834;52.364;9.754;2023-06-22T01:20:15;101204.53;;;23.04;55.48
76864;BME280;65834;52.364;9.754;2023-06-22T01:22:54;101205.19;;;23.11;55.35
76864;BME280;65834;52.364;9.754;2023-06-22T01:25:28;101194.16;;;23.11;55.29
76864;BME280;65834;52.364;9.754;2023-06-22T01:28:08;101188.25;;;23.03;55.49
76864;BME280;65834;52.364;9.754;2023-06-22T01:30:45;101185.63;;;22.91;55.69
76864;BME280;65834;52.364;9.754;2023-06-22T01:33:16;101180.16;;;22.96;55.62
76864;BME280;65834;52.364;9.754;2023-06-22T01:35:46;101196.91;;;22.90;55.82
76864;BME280;65834;52.364;9.754;2023-06-22T01:38:15;101204.50;;;22.83;56.21
76864;BME280;65834;52.364;9.754;2023-06-22T01:40:46;101199.09;;;22.88;55.74
76864;BME280;65834;52.364;9.754;2023-06-22T01:43:16;101195.50;;;22.87;55.96
76864;BME280;65834;52.364;9.754;2023-06-22T01:45:49;101194.31;;;22.83;56.14
76864;BME280;65834;52.364;9.754;2023-06-22T01:48:19;101191.56;;;22.83;56.08
76864;BME280;65834;52.364;9.754;2023-06-22T01:50:49;101194.06;;;22.85;55.86
76864;BME280;65834;52.364;9.754;2023-06-22T01:53:20;101190.22;;;22.86;56.01
76864;BME280;65834;52.364;9.754;2023-06-22T01:55:51;101187.72;;;22.84;56.06
76864;BME280;65834;52.364;9.754;2023-06-22T01:58:23;101194.00;;;22.80;55.98
76864;BME280;65834;52.364;9.754;2023-06-22T02:01:00;101193.75;;;22.31;57.73
76864;BME280;65834;52.364;9.754;2023-06-22T02:03:38;101199.63;;;22.68;56.31
76864;BME280;65834;52.364;9.754;2023-06-22T02:06:15;101193.34;;;22.73;56.26
76864;BME280;65834;52.364;9.754;2023-06-22T02:08:48;101191.34;;;22.68;56.33
76864;BME280;65834;52.364;9.754;2023-06-22T02:11:18;101202.63;;;22.17;57.69
76864;BME280;65834;52.364;9.754;2023-06-22T02:13:50;101201.34;;;21.51;59.87
76864;BME280;65834;52.364;9.754;2023-06-22T02:16:22;101197.28;;;21.82;59.26
76864;BME280;65834;52.364;9.754;2023-06-22T02:18:51;101204.22;;;22.29;57.47
76864;BME280;65834;52.364;9.754;2023-06-22T02:21:21;101202.78;;;22.43;57.00
76864;BME280;65834;52.364;9.754;2023-06-22T02:23:51;101197.47;;;21.63;59.13
76864;BME280;65834;52.364;9.754;2023-06-22T02:26:21;101200.75;;;21.21;60.61
76864;BME280;65834;52.364;9.754;2023-06-22T02:28:53;101201.34;;;20.99;61.46
76864;BME280;65834;52.364;9.754;2023-06-22T02:31:25;101201.84;;;20.96;61.85
76864;BME280;65834;52.364;9.754;2023-06-22T02:33:57;101204.81;;;20.95;61.76
76864;BME280;65834;52.364;9.754;2023-06-22T02:36:27;101208.78;;;20.87;61.68
76864;BME280;65834;52.364;9.754;2023-06-22T02:39:00;101217.91;;;20.76;62.28
76864;BME280;65834;52.364;9.754;2023-06-22T02:41:30;101213.47;;;20.75;62.34
76864;BME280;65834;52.364;9.754;2023-06-22T02:44:00;101216.34;;;20.69;62.29
76864;BME280;65834;52.364;9.754;2023-06-22T02:46:35;101218.13;;;20.63;62.46
76864;BME280;65834;52.364;9.754;2023-06-22T02:49:05;101227.81;;;20.77;62.25
76864;BME280;65834;52.364;9.754;2023-06-22T02:51:34;101230.28;;;21.02;61.51
76864;BME280;65834;52.364;9.754;2023-06-22T02:54:07;101242.75;;;21.16;60.83
76864;BME280;65834;52.364;9.754;2023-06-22T02:56:36;101244.19;;;20.84;61.75
76864;BME280;65834;52.364;9.754;2023-06-22T02:59:10;101252.06;;;20.57;62.92
76864;BME280;65834;52.364;9.754;2023-06-22T03:01:42;101250.28;;;20.51;63.22
76864;BME280;65834;52.364;9.754;2023-06-22T03:04:22;101246.69;;;20.39;63.41
76864;BME280;65834;52.364;9.754;2023-06-22T03:06:52;101254.44;;;20.42;63.61
76864;BME280;65834;52.364;9.754;2023-06-22T03:09:21;101249.19;;;20.40;63.68
76864;BME280;65834;52.364;9.754;2023-06-22T03:11:51;101244.63;;;20.34;63.83
76864;BME280;65834;52.364;9.754;2023-06-22T03:14:22;101256.47;;;20.35;64.03
76864;BME280;65834;52.364;9.754;2023-06-22T03:16:55;101243.78;;;20.34;63.98
76864;BME280;65834;52.364;9.754;2023-06-22T03:19:31;101247.75;;;20.38;63.97
76864;BME280;65834;52.364;9.754;2023-06-22T03:22:01;101243.66;;;20.29;64.12
76864;BME280;65834;52.364;9.754;2023-06-22T03:24:31;101247.88;;;20.13;64.76
76864;BME280;65834;52.364;9.754;2023-06-22T03:27:01;101252.31;;;20.14;64.93
76864;BME280;65834;52.364;9.754;2023-06-22T03:29:33;101243.16;;;20.20;64.76
76864;BME280;65834;52.364;9.754;2023-06-22T03:32:06;101247.06;;;20.13;64.92
76864;BME280;65834;52.364;9.754;2023-06-22T03:34:36;101247.88;;;20.13;65.20
76864;BME280;65834;52.364;9.754;2023-06-22T03:37:05;101247.41;;;20.05;65.11
76864;BME280;65834;52.364;9.754;2023-06-22T03:39:35;101240.38;;;20.09;65.21
76864;BME280;65834;52.364;9.754;2023-06-22T03:42:05;101239.16;;;20.05;65.38
76864;BME280;65834;52.364;9.754;2023-06-22T03:44:35;101240.00;;;20.05;65.17
76864;BME280;65834;52.364;9.754;2023-06-22T03:47:08;101241.47;;;20.19;64.75
76864;BME280;65834;52.364;9.754;2023-06-22T03:49:37;101240.13;;;20.10;64.96
76864;BME280;65834;52.364;9.754;2023-06-22T03:52:07;101238.13;;;20.17;64.61
76864;BME280;65834;52.364;9.754;2023-06-22T03:54:37;101247.78;;;20.20;64.27
76864;BME280;65834;52.364;9.754;2023-06-22T03:57:07;101238.59;;;20.14;64.77
76864;BME280;65834;52.364;9.754;2023-06-22T03:59:37;101238.22;;;20.11;64.96
76864;BME280;65834;52.364;9.754;2023-06-22T04:02:09;101230.19;;;20.09;65.10
76864;BME280;65834;52.364;9.754;2023-06-22T04:04:39;101240.69;;;20.00;65.55
76864;BME280;65834;52.364;9.754;2023-06-22T04:07:09;101236.88;;;20.01;65.11
76864;BME280;65834;52.364;9.754;2023-06-22T04:09:38;101238.81;;;20.13;64.88
76864;BME280;65834;52.364;9.754;2023-06-22T04:12:08;101236.63;;;20.03;65.60
76864;BME280;65834;52.364;9.754;2023-06-22T04:14:38;101246.09;;;20.07;65.55
76864;BME280;65834;52.364;9.754;2023-06-22T04:17:10;101251.66;;;20.00;65.76
76864;BME280;65834;52.364;9.754;2023-06-22T04:19:41;101243.72;;;20.11;65.01
76864;BME280;65834;52.364;9.754;2023-06-22T04:22:11;101243.72;;;20.11;65.68
76864;BME280;65834;52.364;9.754;2023-06-22T04:24:40;101241.09;;;20.16;65.11
76864;BME280;65834;52.364;9.754;2023-06-22T04:27:10;101235.34;;;20.06;65.86
76864;BME280;65834;52.364;9.754;2023-06-22T04:29:39;101239.25;;;19.98;66.02
76864;BME280;65834;52.364;9.754;2023-06-22T04:32:18;101239.78;;;20.18;64.96
76864;BME280;65834;52.364;9.754;2023-06-22T04:34:47;101234.91;;;20.20;65.04
76864;BME280;65834;52.364;9.754;2023-06-22T04:37:19;101243.88;;;20.27;64.46
76864;BME280;65834;52.364;9.754;2023-06-22T04:39:50;101233.63;;;20.34;64.68
76864;BME280;65834;52.364;9.754;2023-06-22T04:42:19;101236.84;;;20.31;65.00
76864;BME280;65834;52.364;9.754;2023-06-22T04:44:49;101243.78;;;20.34;64.87
76864;BME280;65834;52.364;9.754;2023-06-22T04:47:21;101238.31;;;20.45;64.44
76864;BME280;65834;52.364;9.754;2023-06-22T04:49:50;101245.25;;;20.36;65.23
76864;BME280;65834;52.364;9.754;2023-06-22T04:52:20;101238.53;;;20.44;64.64
76864;BME280;65834;52.364;9.754;2023-06-22T04:54:51;101244.78;;;20.63;64.34
76864;BME280;65834;52.364;9.754;2023-06-22T04:57:24;101244.78;;;20.74;64.13
76864;BME280;65834;52.364;9.754;2023-06-22T05:00:00;101245.03;;;20.84;63.63
76864;BME280;65834;52.364;9.754;2023-06-22T05:02:41;101246.56;;;20.80;63.36
76864;BME280;65834;52.364;9.754;2023-06-22T05:05:10;101239.16;;;20.81;63.13
76864;BME280;65834;52.364;9.754;2023-06-22T05:07:41;101232.81;;;20.80;63.22
76864;BME280;65834;52.364;9.754;2023-06-22T05:10:12;101236.19;;;20.82;63.78
76864;BME280;65834;52.364;9.754;2023-06-22T05:12:42;101229.09;;;20.98;63.06
76864;BME280;65834;52.364;9.754;2023-06-22T05:15:12;101235.56;;;21.03;63.09
76864;BME280;65834;52.364;9.754;2023-06-22T05:17:44;101224.94;;;21.07;62.85
76864;BME280;65834;52.364;9.754;2023-06-22T05:20:14;101229.81;;;21.05;63.05
76864;BME280;65834;52.364;9.754;2023-06-22T05:22:45;101216.28;;;21.27;62.12
76864;BME280;65834;52.364;9.754;2023-06-22T05:25:14;101215.31;;;21.33;61.82
76864;BME280;65834;52.364;9.754;2023-06-22T05:27:44;101227.75;;;21.35;62.04
76864;BME280;65834;52.364;9.754;2023-06-22T05:30:14;101226.19;;;21.39;61.62
76864;BME280;65834;52.364;9.754;2023-06-22T05:32:50;101225.56;;;21.49;61.83
76864;BME280;65834;52.364;9.754;2023-06-22T05:35:19;101224.97;;;21.47;61.51
76864;BME280;65834;52.364;9.754;2023-06-22T05:37:49;101223.81;;;21.59;61.14
76864;BME280;65834;52.364;9.754;2023-06-22T05:40:18;101211.16;;;21.58;61.24
76864;BME280;65834;52.364;9.754;2023-06-22T05:42:48;101214.50;;;21.60;61.57
76864;BME280;65834;52.364;9.754;2023-06-22T05:45:18;101218.78;;;21.68;60.75
76864;BME280;65834;52.364;9.754;2023-06-22T05:47:50;101218.38;;;21.76;60.97
76864;BME280;65834;52.364;9.754;2023-06-22T05:50:20;101214.78;;;21.76;60.80
76864;BME280;65834;52.364;9.754;2023-06-22T05:52:49;101227.72;;;21.75;61.00
76864;BME280;65834;52.364;9.754;2023-06-22T05:55:19;101226.22;;;21.84;60.68
76864;BME280;65834;52.364;9.754;2023-06-22T05:57:48;101229.59;;;21.86;60.85
76864;BME280;65834;52.364;9.754;2023-06-22T06:00:19;101229.13;;;21.89;60.37
76864;BME280;65834;52.364;9.754;2023-06-22T06:02:52;101220.59;;;21.91;60.38
76864;BME280;65834;52.364;9.754;2023-06-22T06:05:22;101218.69;;;21.91;60.21
76864;BME280;65834;52.364;9.754;2023-06-22T06:07:52;101206.34;;;21.94;59.97
76864;BME280;65834;52.364;9.754;2023-06-22T06:10:22;101222.63;;;21.95;59.95
76864;BME280;65834;52.364;9.754;2023-06-22T06:12:52;101219.13;;;22.00;60.40
76864;BME280;65834;52.364;9.754;2023-06-22T06:15:22;101224.75;;;22.05;60.47
76864;BME280;65834;52.364;9.754;2023-06-22T06:17:54;101222.06;;;22.10;60.04
76864;BME280;65834;52.364;9.754;2023-06-22T06:20:24;101226.50;;;22.11;60.12
76864;BME280;65834;52.364;9.754;2023-06-22T06:22:55;101230.75;;;22.19;59.43
76864;BME280;65834;52.364;9.754;2023-06-22T06:25:25;101219.00;;;22.23;59.04
76864;BME280;65834;52.364;9.754;2023-06-22T06:27:54;101214.31;;;22.24;59.39
76864;BME280;65834;52.364;9.754;2023-06-22T06:30:24;101208.53;;;22.25;59.65
76864;BME280;65834;52.364;9.754;2023-06-22T06:32:57;101210.56;;;22.30;59.05
76864;BME280;65834;52.364;9.754;2023-06-22T06:35:27;101204.56;;;22.33;58.56
76864;BME280;65834;52.364;9.754;2023-06-22T06:37:57;101201.88;;;22.38;58.86
76864;BME280;65834;52.364;9.754;2023-06-22T06:40:27;101204.97;;;22.41;58.87
76864;BME280;65834;52.364;9.754;2023-06-22T06:42:57;101200.34;;;22.47;58.53
76864;BME280;65834;52.364;9.754;2023-06-22T06:45:27;101193.50;;;22.49;58.04
76864;BME280;65834;52.364;9.754;2023-06-22T06:48:02;101197.44;;;22.53;57.65
76864;BME280;65834;52.364;9.754;2023-06-22T06:50:32;101196.94;;;22.56;57.66
76864;BME280;65834;52.364;9.754;2023-06-22T06:53:01;101187.31;;;22.59;57.39
76864;BME280;65834;52.364;9.754;2023-06-22T06:55:32;101190.16;;;22.64;58.14
76864;BME280;65834;52.364;9.754;2023-06-22T06:58:02;101188.84;;;22.66;57.53
76864;BME280;65834;52.364;9.754;2023-06-22T07:00:34;101187.75;;;22.67;57.82
76864;BME280;65834;52.364;9.754;2023-06-22T07:03:06;101190.66;;;22.78;57.68
76864;BME280;65834;52.364;9.754;2023-06-22T07:05:36;101202.97;;;22.92;57.24
76864;BME280;65834;52.364;9.754;2023-06-22T07:08:05;101196.06;;;22.89;57.57
76864;BME280;65834;52.364;9.754;2023-06-22T07:10:35;101201.06;;;22.92;57.28
76864;BME280;65834;52.364;9.754;2023-06-22T07:13:05;101199.09;;;23.09;57.13
76864;BME280;65834;52.364;9.754;2023-06-22T07:15:34;101200.06;;;23.20;56.75
76864;BME280;65834;52.364;9.754;2023-06-22T07:18:06;101207.06;;;23.28;56.74
76864;BME280;65834;52.364;9.754;2023-06-22T07:20:36;101203.53;;;23.32;55.59
76864;BME280;65834;52.364;9.754;2023-06-22T07:23:06;101203.00;;;23.35;55.79
76864;BME280;65834;52.364;9.754;2023-06-22T07:25:35;101215.31;;;23.44;55.27
76864;BME280;65834;52.364;9.754;2023-06-22T07:28:06;101215.91;;;23.46;55.17
76864;BME280;65834;52.364;9.754;2023-06-22T07:30:36;101210.91;;;23.43;55.17
76864;BME280;65834;52.364;9.754;2023-06-22T07:33:08;101202.69;;;23.53;54.73
76864;BME280;65834;52.364;9.754;2023-06-22T07:35:38;101199.75;;;23.60;54.53
76864;BME280;65834;52.364;9.754;2023-06-22T07:38:07;101187.94;;;23.64;54.22
76864;BME280;65834;52.364;9.754;2023-06-22T07:40:37;101181.53;;;23.59;54.90
76864;BME280;65834;52.364;9.754;2023-06-22T07:43:08;101183.69;;;23.57;54.66
76864;BME280;65834;52.364;9.754;2023-06-22T07:45:38;101192.28;;;23.60;54.68
76864;BME280;65834;52.364;9.754;2023-06-22T07:48:12;101193.97;;;23.61;54.70
76864;BME280;65834;52.364;9.754;2023-06-22T07:50:41;101190.75;;;23.69;54.62
76864;BME280;65834;52.364;9.754;2023-06-22T07:53:11;101190.22;;;23.72;54.45
76864;BME280;65834;52.364;9.754;2023-06-22T07:55:40;101185.28;;;23.74;54.57
76864;BME280;65834;52.364;9.754;2023-06-22T07:58:10;101189.69;;;23.75;54.48
76864;BME280;65834;52.364;9.754;2023-06-22T08:00:39;101185.81;;;23.71;54.44
76864;BME280;65834;52.364;9.754;2023-06-22T08:03:11;101192.66;;;23.69;54.60
76864;BME280;65834;52.364;9.754;2023-06-22T08:05:44;101189.13;;;23.73;54.59
76864;BME280;65834;52.364;9.754;2023-06-22T08:08:15;101193.06;;;23.78;54.13
76864;BME280;65834;52.364;9.754;2023-06-22T08:10:44;101183.59;;;23.73;54.26
76864;BME280;65834;52.364;9.754;2023-06-22T08:13:14;101186.38;;;23.73;53.96
76864;BME280;65834;52.364;9.754;2023-06-22T08:15:43;101189.13;;;23.73;54.15
76864;BME280;65834;52.364;9.754;2023-06-22T08:18:18;101196.34;;;23.74;54.12
76864;BME280;65834;52.364;9.754;2023-06-22T08:20:47;101209.56;;;23.72;54.24
76864;BME280;65834;52.364;9.754;2023-06-22T08:23:17;101213.19;;;23.78;54.09
76864;BME280;65834;52.364;9.754;2023-06-22T08:25:46;101207.63;;;23.73;54.34
76864;BME280;65834;52.364;9.754;2023-06-22T08:28:17;101205.75;;;23.79;54.17
76864;BME280;65834;52.364;9.754;2023-06-22T08:30:46;101198.31;;;23.79;54.48
76864;BME280;65834;52.364;9.754;2023-06-22T08:33:18;101200.50;;;23.77;54.33
76864;BME280;65834;52.364;9.754;2023-06-22T08:35:54;101205.19;;;23.77;54.82
76864;BME280;65834;52.364;9.754;2023-06-22T08:38:23;101202.94;;;23.73;55.00
76864;BME280;65834;52.364;9.754;2023-06-22T08:40:53;101209.31;;;23.74;54.80
76864;BME280;65834;52.364;9.754;2023-06-22T08:43:23;101210.41;;;23.73;55.27
76864;BME280;65834;52.364;9.754;2023-06-22T08:45:52;101202.16;;;23.78;54.98
76864;BME280;65834;52.364;9.754;2023-06-22T08:48:24;101197.53;;;23.84;54.80
76864;BME280;65834;52.364;9.754;2023-06-22T08:50:54;101207.47;;;23.85;54.91
76864;BME280;65834;52.364;9.754;2023-06-22T08:53:24;101193.66;;;23.85;54.94
76864;BME280;65834;52.364;9.754;2023-06-22T08:55:53;101173.94;;;23.76;54.94
76864;BME280;65834;52.364;9.754;2023-06-22T08:58:23;101183.72;;;23.84;55.02
76864;BME280;65834;52.364;9.754;2023-06-22T09:00:52;101193.97;;;23.88;55.00
76864;BME280;65834;52.364;9.754;2023-06-22T09:03:24;101188.44;;;23.88;55.18
76864;BME280;65834;52.364;9.754;2023-06-22T09:05:54;101190.38;;;23.88;55.25
76864;BME280;65834;52.364;9.754;2023-06-22T09:08:24;101191.22;;;23.88;55.11
76864;BME280;65834;52.364;9.754;2023-06-22T09:10:53;101187.09;;;23.91;55.20
76864;BME280;65834;52.364;9.754;2023-06-22T09:13:23;101175.78;;;23.92;55.16
76864;BME280;65834;52.364;9.754;2023-06-22T09:15:52;101173.84;;;23.93;55.30
76864;BME280;65834;52.364;9.754;2023-06-22T09:18:24;101164.44;;;23.94;55.33
76864;BME280;65834;52.364;9.754;2023-06-22T09:20:54;101158.97;;;23.99;55.28
76864;BME280;65834;52.364;9.754;2023-06-22T09:23:23;101156.22;;;23.99;55.17
76864;BME280;65834;52.364;9.754;2023-06-22T09:25:53;101147.97;;;24.04;55.24
76864;BME280;65834;52.364;9.754;2023-06-22T09:28:22;101149.63;;;24.05;55.05
76864;BME280;65834;52.364;9.754;2023-06-22T09:30:52;101145.47;;;24.02;55.29
76864;BME280;65834;52.364;9.754;2023-06-22T09:33:27;101144.34;;;24.03;55.45
76864;BME280;65834;52.364;9.754;2023-06-22T09:35:56;101138.59;;;24.05;55.45
76864;BME280;65834;52.364;9.754;2023-06-22T09:38:26;101126.72;;;24.09;55.29
76864;BME280;65834;52.364;9.754;2023-06-22T09:40:56;101125.38;;;24.12;55.36
76864;BME280;65834;52.364;9.754;2023-06-22T09:43:26;101130.31;;;24.10;55.41
76864;BME280;65834;52.364;9.754;2023-06-22T09:45:56;101146.69;;;24.11;55.34
76864;BME280;65834;52.364;9.754;2023-06-22T09:48:28;101137.56;;;24.11;55.44
76864;BME280;65834;52.364;9.754;2023-06-22T09:50:58;101150.25;;;24.12;55.45
76864;BME280;65834;52.364;9.754;2023-06-22T09:53:27;101145.88;;;24.16;55.76
76864;BME280;65834;52.364;9.754;2023-06-22T09:55:57;101141.44;;;24.15;55.35
76864;BME280;65834;52.364;9.754;2023-06-22T09:58:30;101137.38;;;24.22;56.57
76864;BME280;65834;52.364;9.754;2023-06-22T10:00:59;101143.00;;;24.38;55.91
76864;BME280;65834;52.364;9.754;2023-06-22T10:03:31;101130.84;;;24.39;55.95
76864;BME280;65834;52.364;9.754;2023-06-22T10:06:01;101131.63;;;24.34;55.49
76864;BME280;65834;52.364;9.754;2023-06-22T10:08:31;101128.31;;;24.32;55.60
76864;BME280;65834;52.364;9.754;2023-06-22T10:11:00;101134.09;;;24.31;55.75
76864;BME280;65834;52.364;9.754;2023-06-22T10:13:30;101123.31;;;24.29;55.80
76864;BME280;65834;52.364;9.754;2023-06-22T10:16:00;101118.63;;;24.30;55.76
76864;BME280;65834;52.364;9.754;2023-06-22T10:18:32;101116.16;;;24.33;55.67
76864;BME280;65834;52.364;9.754;2023-06-22T10:21:02;101132.75;;;24.33;55.98
76864;BME280;65834;52.364;9.754;2023-06-22T10:23:31;101126.38;;;24.33;56.07
76864;BME280;65834;52.364;9.754;2023-06-22T10:26:01;101121.41;;;24.35;56.01
76864;BME280;65834;52.364;9.754;2023-06-22T10:28:31;101117.84;;;24.39;56.01
76864;BME280;65834;52.364;9.754;2023-06-22T10:31:00;101108.75;;;24.44;56.13
76864;BME280;65834;52.364;9.754;2023-06-22T10:33:32;101107.34;;;24.41;56.56
76864;BME280;65834;52.364;9.754;2023-06-22T10:36:02;101104.03;;;24.39;56.40
76864;BME280;65834;52.364;9.754;2023-06-22T10:38:32;101107.66;;;24.45;56.74
76864;BME280;65834;52.364;9.754;2023-06-22T10:41:01;101103.53;;;24.52;56.64
76864;BME280;65834;52.364;9.754;2023-06-22T10:43:31;101096.94;;;24.58;56.33
76864;BME280;65834;52.364;9.754;2023-06-22T10:46:01;101093.59;;;24.56;56.31
76864;BME280;65834;52.364;9.754;2023-06-22T10:48:33;101089.44;;;24.54;56.38
76864;BME280;65834;52.364;9.754;2023-06-22T10:51:02;101088.16;;;24.71;55.97
76864;BME280;65834;52.364;9.754;2023-06-22T10:53:32;101090.84;;;24.56;56.13
76864;BME280;65834;52.364;9.754;2023-06-22T10:56:01;101090.81;;;24.51;56.39
76864;BME280;65834;52.364;9.754;2023-06-22T10:58:31;101086.69;;;24.54;56.55
76864;BME280;65834;52.364;9.754;2023-06-22T11:01:01;101089.22;;;24.60;56.28
76864;BME280;65834;52.364;9.754;2023-06-22T11:03:33;101081.44;;;24.57;56.35
76864;BME280;65834;52.364;9.754;2023-06-22T11:06:02;101066.50;;;24.58;56.33
76864;BME280;65834;52.364;9.754;2023-06-22T11:08:32;101069.63;;;24.72;56.03
76864;BME280;65834;52.364;9.754;2023-06-22T11:11:01;101070.94;;;24.64;56.14
76864;BME280;65834;52.364;9.754;2023-06-22T11:13:31;101076.22;;;24.66;56.31
76864;BME280;65834;52.364;9.754;2023-06-22T11:16:00;101077.63;;;24.68;56.37
76864;BME280;65834;52.364;9.754;2023-06-22T11:18:33;101072.13;;;24.78;56.35
76864;BME280;65834;52.364;9.754;2023-06-22T11:21:03;101071.84;;;24.70;56.38
76864;BME280;65834;52.364;9.754;2023-06-22T11:23:32;101069.06;;;24.75;56.64
76864;BME280;65834;52.364;9.754;2023-06-22T11:26:02;101071.94;;;24.90;56.96
76864;BME280;65834;52.364;9.754;2023-06-22T11:28:31;101068.88;;;24.82;56.32
76864;BME280;65834;52.364;9.754;2023-06-22T11:31:03;101062.16;;;24.77;56.64
76864;BME280;65834;52.364;9.754;2023-06-22T11:33:54;101064.16;;;24.82;56.44
76864;BME280;65834;52.364;9.754;2023-06-22T11:36:23;101064.38;;;24.80;56.60
76864;BME280;65834;52.364;9.754;2023-06-22T11:38:53;101060.50;;;24.76;56.37
76864;BME280;65834;52.364;9.754;2023-06-22T11:41:22;101060.50;;;24.76;56.50
76864;BME280;65834;52.364;9.754;2023-06-22T11:43:52;101046.41;;;24.78;56.49
76864;BME280;65834;52.364;9.754;2023-06-22T11:46:21;101030.94;;;24.82;56.36
76864;BME280;65834;52.364;9.754;2023-06-22T11:48:54;101039.81;;;24.89;56.28
76864;BME280;65834;52.364;9.754;2023-06-22T11:51:23;101029.56;;;24.90;56.03
76864;BME280;65834;52.364;9.754;2023-06-22T11:53:53;101016.88;;;24.99;55.95
76864;BME280;65834;52.364;9.754;2023-06-22T11:56:22;101010.78;;;25.02;56.15
76864;BME280;65834;52.364;9.754;2023-06-22T11:58:54;101004.69;;;25.05;55.66
76864;BME280;65834;52.364;9.754;2023-06-22T12:01:24;101003.59;;;25.06;55.93
76864;BME280;65834;52.364;9.754;2023-06-22T12:03:56;100999.19;;;25.15;55.80
76864;BME280;65834;52.364;9.754;2023-06-22T12:06:26;100994.47;;;25.20;55.59
76864;BME280;65834;52.364;9.754;2023-06-22T12:08:55;100979.28;;;25.28;55.34
76864;BME280;65834;52.364;9.754;2023-06-22T12:11:31;100993.66;;;25.30;55.22
76864;BME280;65834;52.364;9.754;2023-06-22T12:14:01;100993.66;;;25.35;54.80
76864;BME280;65834;52.364;9.754;2023-06-22T12:16:31;100978.72;;;25.31;55.15
76864;BME280;65834;52.364;9.754;2023-06-22T12:19:04;100982.59;;;25.30;55.26
76864;BME280;65834;52.364;9.754;2023-06-22T12:21:33;100977.31;;;25.33;54.97
76864;BME280;65834;52.364;9.754;2023-06-22T12:24:03;100967.91;;;25.34;55.01
76864;BME280;65834;52.364;9.754;2023-06-22T12:26:33;100966.53;;;25.37;55.06
76864;BME280;65834;52.364;9.754;2023-06-22T12:29:02;100956.28;;;25.38;55.34
76864;BME280;65834;52.364;9.754;2023-06-22T12:31:32;100959.06;;;25.38;55.50
76864;BME280;65834;52.364;9.754;2023-06-22T12:34:04;100953.50;;;25.43;55.32
76864;BME280;65834;52.364;9.754;2023-06-22T12:36:34;100949.34;;;25.40;55.39
76864;BME280;65834;52.364;9.754;2023-06-22T12:39:03;100956.53;;;25.41;55.53
76864;BME280;65834;52.364;9.754;2023-06-22T12:41:33;100952.97;;;25.41;55.57
76864;BME280;65834;52.364;9.754;2023-06-22T12:44:03;100950.44;;;25.44;55.62
76864;BME280;65834;52.364;9.754;2023-06-22T12:46:32;100947.41;;;25.46;55.50
76864;BME280;65834;52.364;9.754;2023-06-22T12:49:06;100948.25;;;25.46;55.33
76864;BME280;65834;52.364;9.754;2023-06-22T12:51:39;100947.41;;;25.51;55.14
76864;BME280;65834;52.364;9.754;2023-06-22T12:54:09;100932.72;;;25.50;55.54
76864;BME280;65834;52.364;9.754;2023-06-22T12:56:39;100928.88;;;25.51;55.67
76864;BME280;65834;52.364;9.754;2023-06-22T12:59:10;100927.19;;;25.50;55.75
76864;BME280;65834;52.364;9.754;2023-06-22T13:01:40;100929.69;;;25.52;55.90
76864;BME280;65834;52.364;9.754;2023-06-22T13:04:13;100926.09;;;25.51;55.79
76864;BME280;65834;52.364;9.754;2023-06-22T13:06:42;100927.75;;;25.52;55.76
76864;BME280;65834;52.364;9.754;2023-06-22T13:09:17;100927.22;;;25.55;55.91